createdAt,value
2023-03-17T00:00:59.355Z,61.42
2023-03-17T00:04:02.173Z,61.74
2023-03-17T00:07:06.363Z,61.63
2023-03-17T00:10:15.540Z,61.50
2023-03-17T00:13:20.496Z,61.58
2023-03-17T00:16:25.510Z,61.30
2023-03-17T00:19:32.154Z,61.57
2023-03-17T00:22:35.286Z,61.71
2023-03-17T00:25:38.445Z,61.61
2023-03-17T00:28:42.857Z,61.45
2023-03-17T00:31:46.077Z,61.62
2023-03-17T00:34:48.889Z,61.33
2023-03-17T00:37:53.700Z,61.51
2023-03-17T00:40:56.531Z,61.55
2023-03-17T00:44:00.520Z,61.48
2023-03-17T00:47:03.173Z,61.52
2023-03-17T00:50:07.617Z,61.65
2023-03-17T00:53:13.676Z,61.43
2023-03-17T00:56:17.967Z,61.72
2023-03-17T00:59:27.210Z,61.41
2023-03-17T01:02:29.787Z,61.34
2023-03-17T01:05:32.833Z,61.49
2023-03-17T01:08:36.662Z,61.67
2023-03-17T01:11:39.215Z,61.20
2023-03-17T01:14:43.712Z,61.48
2023-03-17T01:17:46.619Z,61.70
2023-03-17T01:20:49.790Z,61.22
2023-03-17T01:23:52.319Z,61.22
2023-03-17T01:26:54.793Z,61.19
2023-03-17T01:29:58.742Z,61.51
2023-03-17T01:33:01.579Z,61.06
2023-03-17T01:36:04.142Z,61.38
2023-03-17T01:39:07.362Z,61.34
2023-03-17T01:42:10.551Z,61.20
2023-03-17T01:45:46.569Z,61.23
2023-03-17T01:48:57.667Z,61.22
2023-03-17T01:52:05.934Z,61.10
2023-03-17T01:55:11.589Z,61.11
2023-03-17T01:58:17.127Z,61.28
2023-03-17T02:01:22.364Z,61.25
2023-03-17T02:04:27.146Z,61.00
2023-03-17T02:07:29.746Z,61.22
2023-03-17T02:10:32.665Z,61.34
2023-03-17T02:13:35.892Z,61.38
2023-03-17T02:16:38.485Z,61.33
2023-03-17T02:19:42.917Z,61.28
2023-03-17T02:22:49.875Z,61.24
2023-03-17T02:25:56.044Z,61.19
2023-03-17T02:28:58.556Z,60.96
2023-03-17T02:32:01.322Z,61.21
2023-03-17T02:35:04.985Z,61.27
2023-03-17T02:38:09.770Z,61.11
2023-03-17T02:41:12.543Z,61.05
2023-03-17T02:44:14.981Z,61.18
2023-03-17T02:47:17.746Z,61.34
2023-03-17T02:50:23.856Z,61.01
2023-03-17T02:53:27.687Z,61.11
2023-03-17T02:56:30.224Z,60.88
2023-03-17T02:59:32.886Z,61.28
2023-03-17T03:02:35.702Z,60.84
2023-03-17T03:05:40.728Z,60.86
2023-03-17T03:08:44.863Z,61.05
2023-03-17T03:11:47.867Z,60.88
2023-03-17T03:14:50.702Z,60.85
2023-03-17T03:17:53.261Z,60.80
2023-03-17T03:20:55.910Z,61.09
2023-03-17T03:24:00.110Z,61.17
2023-03-17T03:27:02.773Z,61.10
2023-03-17T03:30:07.903Z,61.02
2023-03-17T03:33:12.778Z,60.65
2023-03-17T03:36:15.261Z,61.06
2023-03-17T03:39:19.094Z,60.83
2023-03-17T03:42:21.745Z,60.98
2023-03-17T03:45:25.140Z,60.86
2023-03-17T03:48:27.956Z,60.56
2023-03-17T03:51:30.624Z,61.21
2023-03-17T03:54:34.722Z,61.00
2023-03-17T03:57:37.415Z,60.77
2023-03-17T04:00:40.591Z,61.12
2023-03-17T04:03:43.160Z,60.81
2023-03-17T04:06:46.497Z,60.96
2023-03-17T04:09:51.039Z,60.91
2023-03-17T04:12:53.664Z,60.85
2023-03-17T04:15:56.517Z,60.83
2023-03-17T04:18:59.175Z,61.01
2023-03-17T04:22:01.917Z,60.75
2023-03-17T04:25:07.023Z,60.65
2023-03-17T04:28:10.371Z,60.71
2023-03-17T04:31:13.423Z,60.97
2023-03-17T04:34:18.692Z,60.43
2023-03-17T04:37:21.234Z,60.81
2023-03-17T04:40:25.747Z,60.69
2023-03-17T04:43:28.255Z,60.87
2023-03-17T04:46:31.339Z,60.96
2023-03-17T04:49:34.096Z,60.82
2023-03-17T04:52:37.398Z,60.63
2023-03-17T04:55:42.068Z,60.63
2023-03-17T04:58:44.957Z,60.77
2023-03-17T05:01:48.048Z,60.70
2023-03-17T05:04:50.577Z,61.23
2023-03-17T05:07:53.374Z,60.93
2023-03-17T05:10:58.358Z,60.84
2023-03-17T05:14:01.591Z,60.74
2023-03-17T05:17:04.169Z,60.75
2023-03-17T05:20:08.441Z,60.53
2023-03-17T05:23:11.402Z,60.77
2023-03-17T05:26:16.062Z,60.67
2023-03-17T05:29:18.813Z,60.74
2023-03-17T05:32:21.373Z,60.79
2023-03-17T05:35:24.137Z,60.50
2023-03-17T05:38:26.776Z,60.63
2023-03-17T05:41:32.020Z,60.58
2023-03-17T05:44:34.976Z,60.54
2023-03-17T05:47:38.101Z,60.40
2023-03-17T05:50:41.751Z,60.37
2023-03-17T05:53:44.387Z,59.97
2023-03-17T05:56:48.567Z,60.57
2023-03-17T05:59:51.796Z,60.75
2023-03-17T06:02:54.520Z,60.50
2023-03-17T06:05:57.038Z,60.25
2023-03-17T06:08:59.652Z,60.45
2023-03-17T06:12:03.600Z,60.43
2023-03-17T06:15:08.552Z,60.34
2023-03-17T06:18:11.129Z,60.38
2023-03-17T06:21:14.055Z,60.32
2023-03-17T06:24:16.939Z,60.43
2023-03-17T06:27:20.794Z,60.17
2023-03-17T06:30:23.612Z,60.21
2023-03-17T06:33:27.144Z,60.07
2023-03-17T06:36:29.995Z,60.25
2023-03-17T06:39:32.649Z,60.34
2023-03-17T06:42:37.648Z,60.26
2023-03-17T06:45:41.501Z,60.18
2023-03-17T06:48:44.260Z,59.96
2023-03-17T06:51:46.765Z,60.18
2023-03-17T06:54:50.696Z,60.29
2023-03-17T06:57:55.141Z,60.34
2023-03-17T07:00:59.737Z,60.08
2023-03-17T07:04:02.374Z,59.87
2023-03-17T07:07:06.003Z,60.20
2023-03-17T07:10:10.261Z,60.10
2023-03-17T07:13:19.344Z,60.33
2023-03-17T07:16:39.488Z,59.85
2023-03-17T07:20:14.389Z,60.15
2023-03-17T07:23:21.565Z,60.22
2023-03-17T07:26:24.578Z,60.27
2023-03-17T07:33:05.704Z,60.08
2023-03-17T07:36:10.519Z,59.88
2023-03-17T07:39:14.207Z,59.89
2023-03-17T07:42:17.518Z,60.04
2023-03-17T07:45:23.572Z,59.95
2023-03-17T07:48:28.233Z,60.22
2023-03-17T07:51:30.863Z,59.85
2023-03-17T07:54:33.789Z,59.80
2023-03-17T07:57:37.396Z,59.78
2023-03-17T08:00:39.896Z,60.01
2023-03-17T08:03:43.808Z,59.69
2023-03-17T08:06:46.937Z,59.76
2023-03-17T08:09:49.550Z,59.69
2023-03-17T08:12:53.556Z,59.90
2023-03-17T08:15:56.196Z,59.93
2023-03-17T08:19:00.877Z,59.69
2023-03-17T08:22:03.470Z,59.75
2023-03-17T08:25:06.926Z,59.88
2023-03-17T08:28:09.492Z,59.97
2023-03-17T08:31:14.217Z,60.01
2023-03-17T08:34:18.600Z,59.81
2023-03-17T08:37:22.264Z,59.64
2023-03-17T08:40:24.899Z,59.65
2023-03-17T08:43:28.166Z,59.76
2023-03-17T08:46:32.977Z,59.73
2023-03-17T08:49:37.459Z,59.46
2023-03-17T08:52:41.233Z,59.84
2023-03-17T08:55:43.909Z,59.75
2023-03-17T08:58:46.989Z,59.92
2023-03-17T09:01:49.661Z,59.98
2023-03-17T09:04:54.146Z,59.84
2023-03-17T09:07:56.778Z,59.92
2023-03-17T09:10:59.852Z,59.79
2023-03-17T09:14:03.168Z,60.09
2023-03-17T09:17:06.138Z,59.92
2023-03-17T09:20:12.431Z,60.19
2023-03-17T09:23:15.898Z,59.86
2023-03-17T09:26:19.572Z,59.81
2023-03-17T09:29:21.969Z,59.76
2023-03-17T09:32:24.504Z,59.81
2023-03-17T09:35:31.335Z,59.71
2023-03-17T09:38:34.269Z,60.00
2023-03-17T09:41:53.022Z,59.83
2023-03-17T09:45:17.836Z,59.81
2023-03-17T09:48:46.449Z,59.92
2023-03-17T09:51:51.524Z,60.05
2023-03-17T09:54:54.124Z,59.76
2023-03-17T09:58:00.649Z,59.93
2023-03-17T10:01:05.353Z,60.17
2023-03-17T10:04:09.903Z,60.59
2023-03-17T10:07:19.183Z,60.24
2023-03-17T10:10:30.749Z,60.11
2023-03-17T10:13:47.264Z,60.08
2023-03-17T10:16:54.951Z,60.37
2023-03-17T10:20:01.103Z,60.42
2023-03-17T10:23:08.455Z,60.47
2023-03-17T10:26:24.190Z,60.35
2023-03-17T10:29:27.690Z,60.36
2023-03-17T10:32:32.041Z,60.63
2023-03-17T10:35:36.616Z,60.49
2023-03-17T10:38:40.633Z,60.48
2023-03-17T10:41:53.226Z,60.21
2023-03-17T10:44:58.714Z,60.35
2023-03-17T10:48:04.440Z,60.34
2023-03-17T10:51:09.274Z,60.46
2023-03-17T10:54:19.870Z,60.41
2023-03-17T10:57:23.074Z,60.33
2023-03-17T11:00:30.422Z,60.23
2023-03-17T11:03:37.283Z,60.30
2023-03-17T11:06:44.878Z,60.22
2023-03-17T11:09:52.605Z,60.45
2023-03-17T11:13:00.460Z,60.17
2023-03-17T11:16:11.056Z,60.31
2023-03-17T11:19:17.140Z,60.54
2023-03-17T11:22:29.118Z,60.36
2023-03-17T11:25:36.089Z,60.46
2023-03-17T11:28:41.972Z,60.54
2023-03-17T11:31:51.764Z,60.44
2023-03-17T11:35:11.508Z,60.35
2023-03-17T11:45:36.537Z,60.43
2023-03-17T11:52:10.976Z,60.66
2023-03-17T11:55:28.980Z,60.37
2023-03-17T11:58:39.274Z,60.53
2023-03-17T12:01:54.882Z,60.43
2023-03-17T12:05:01.189Z,60.36
2023-03-17T12:08:09.934Z,60.45
2023-03-17T12:11:17.350Z,60.33
2023-03-17T12:14:28.239Z,60.51
2023-03-17T12:17:35.837Z,60.54
2023-03-17T12:20:48.074Z,60.67
2023-03-17T12:23:52.360Z,60.58
2023-03-17T12:26:59.485Z,60.55
2023-03-17T12:30:08.779Z,60.53
2023-03-17T12:33:21.862Z,60.56
2023-03-17T12:36:25.186Z,60.66
2023-03-17T12:39:32.921Z,60.61
2023-03-17T12:42:47.032Z,60.69
2023-03-17T12:46:08.929Z,60.48
2023-03-17T12:49:29.490Z,60.58
2023-03-17T12:52:46.822Z,60.72
2023-03-17T12:55:53.565Z,60.74
2023-03-17T12:59:03.007Z,60.69
2023-03-17T13:02:18.687Z,60.96
2023-03-17T13:05:33.950Z,60.71
2023-03-17T13:08:40.955Z,60.84
2023-03-17T13:11:49.681Z,60.78
2023-03-17T13:14:52.815Z,60.76
2023-03-17T13:18:24.760Z,60.77
2023-03-17T13:21:31.759Z,60.54
2023-03-17T13:24:43.361Z,60.68
2023-03-17T13:27:50.089Z,60.67
2023-03-17T13:31:00.545Z,60.68
2023-03-17T13:34:14.038Z,60.53
2023-03-17T13:37:29.006Z,60.51
2023-03-17T13:40:40.192Z,60.82
2023-03-17T13:43:53.305Z,60.72
2023-03-17T13:46:56.547Z,60.55
2023-03-17T13:50:05.095Z,60.40
2023-03-17T13:53:11.647Z,60.53
2023-03-17T13:56:19.729Z,60.59
2023-03-17T13:59:33.945Z,61.01
2023-03-17T14:02:41.075Z,60.73
2023-03-17T14:05:48.904Z,60.85
2023-03-17T14:08:54.918Z,60.55
2023-03-17T14:12:01.257Z,60.98
2023-03-17T14:15:08.358Z,60.85
2023-03-17T14:18:17.288Z,60.86
2023-03-17T14:21:24.526Z,61.18
2023-03-17T14:24:31.719Z,61.05
2023-03-17T14:27:37.678Z,60.91
2023-03-17T14:30:40.424Z,61.33
2023-03-17T14:33:43.052Z,61.10
2023-03-17T14:36:47.214Z,61.24
2023-03-17T14:39:52.293Z,60.98
2023-03-17T14:42:55.196Z,61.22
2023-03-17T14:46:01.632Z,61.40
2023-03-17T14:49:13.686Z,61.18
2023-03-17T14:52:22.772Z,61.08
2023-03-17T14:55:33.770Z,61.29
2023-03-17T14:58:41.878Z,61.18
2023-03-17T15:01:47.331Z,61.35
2023-03-17T15:04:54.801Z,61.28
2023-03-17T15:07:58.746Z,61.35
2023-03-17T15:11:03.182Z,61.60
2023-03-17T15:14:15.849Z,61.32
2023-03-17T15:17:20.316Z,61.33
2023-03-17T15:20:23.607Z,61.43
2023-03-17T15:23:30.409Z,61.65
2023-03-17T15:26:33.262Z,61.45
2023-03-17T15:29:35.946Z,61.43
2023-03-17T15:32:41.223Z,61.68
2023-03-17T15:35:43.918Z,61.42
2023-03-17T15:38:47.795Z,61.51
2023-03-17T15:41:50.295Z,61.40
2023-03-17T15:44:53.798Z,61.88
2023-03-17T15:47:57.060Z,61.53
2023-03-17T15:51:01.345Z,61.24
2023-03-17T15:54:05.568Z,61.56
2023-03-17T15:57:09.504Z,61.73
2023-03-17T16:00:17.923Z,61.52
2023-03-17T16:03:28.516Z,61.58
2023-03-17T16:06:31.204Z,61.86
2023-03-17T16:09:35.925Z,61.64
2023-03-17T16:12:38.413Z,61.86
2023-03-17T16:15:43.879Z,61.80
2023-03-17T16:18:47.487Z,61.56
2023-03-17T16:21:50.355Z,61.18
2023-03-17T16:24:54.119Z,61.32
2023-03-17T16:27:58.567Z,61.74
2023-03-17T16:31:03.418Z,61.09
2023-03-17T16:34:16.523Z,60.94
2023-03-17T16:37:19.167Z,61.03
2023-03-17T16:40:27.223Z,60.85
2023-03-17T16:43:35.556Z,61.34
2023-03-17T16:46:38.427Z,60.96
2023-03-17T16:49:41.042Z,61.22
2023-03-17T16:52:43.490Z,60.85
2023-03-17T16:55:47.427Z,60.75
2023-03-17T16:58:50.558Z,60.59
2023-03-17T17:01:54.990Z,60.72
2023-03-17T17:04:57.555Z,60.95
2023-03-17T17:08:00.479Z,60.79
2023-03-17T17:11:04.496Z,61.04
2023-03-17T17:14:07.167Z,60.85
2023-03-17T17:17:11.191Z,60.78
2023-03-17T17:20:16.564Z,61.21
2023-03-17T17:23:21.330Z,61.52
2023-03-17T17:26:25.591Z,61.31
2023-03-17T17:29:30.669Z,61.35
2023-03-17T17:32:35.245Z,61.49
2023-03-17T17:35:38.474Z,61.75
2023-03-17T17:38:41.619Z,61.42
2023-03-17T17:41:46.012Z,61.60
2023-03-17T17:44:48.998Z,61.86
2023-03-17T17:47:51.948Z,61.79
2023-03-17T17:50:56.030Z,61.62
2023-03-17T17:53:58.478Z,61.83
2023-03-17T17:57:05.143Z,61.81
2023-03-17T18:00:09.093Z,61.61
2023-03-17T18:03:11.705Z,61.65
2023-03-17T18:06:14.965Z,61.89
2023-03-17T18:09:18.193Z,61.83
2023-03-17T18:12:22.087Z,61.75
2023-03-17T18:15:26.466Z,61.90
2023-03-17T18:18:28.959Z,61.92
2023-03-17T18:21:32.161Z,61.99
2023-03-17T18:24:36.055Z,61.85
2023-03-17T18:27:40.829Z,61.92
2023-03-17T18:30:45.152Z,61.77
2023-03-17T18:33:50.502Z,61.90
2023-03-17T18:36:54.132Z,61.66
2023-03-17T18:40:12.541Z,62.08
2023-03-17T18:43:18.392Z,61.97
2023-03-17T18:46:21.324Z,61.63
2023-03-17T18:49:26.988Z,62.09
2023-03-17T18:52:32.933Z,61.82
2023-03-17T18:55:35.589Z,61.95
2023-03-17T18:58:39.537Z,61.80
2023-03-17T19:01:42.125Z,61.77
2023-03-17T19:04:47.027Z,62.17
2023-03-17T19:07:49.633Z,61.59
2023-03-17T19:10:52.209Z,62.22
2023-03-17T19:13:56.338Z,62.19
2023-03-17T19:16:59.247Z,61.96
2023-03-17T19:20:02.564Z,61.92
2023-03-17T19:23:05.784Z,61.88
2023-03-17T19:26:08.663Z,61.90
2023-03-17T19:29:13.107Z,62.04
2023-03-17T19:32:16.231Z,61.76
2023-03-17T19:35:18.719Z,61.93
2023-03-17T19:38:21.328Z,61.92
2023-03-17T19:41:23.920Z,62.04
2023-03-17T19:44:32.245Z,61.92
2023-03-17T19:47:34.957Z,61.92
2023-03-17T19:50:38.061Z,62.10
2023-03-17T19:53:40.942Z,61.97
2023-03-17T19:56:43.554Z,61.74
2023-03-17T19:59:47.822Z,61.87
2023-03-17T20:02:52.170Z,62.04
2023-03-17T20:05:54.922Z,61.93
2023-03-17T20:08:57.403Z,62.06
2023-03-17T20:12:00.159Z,61.85
2023-03-17T20:15:04.761Z,62.22
2023-03-17T20:18:08.375Z,61.53
2023-03-17T20:21:13.634Z,61.70
2023-03-17T20:24:16.550Z,61.98
2023-03-17T20:27:20.408Z,62.23
2023-03-17T20:30:24.395Z,62.06
2023-03-17T20:33:26.965Z,62.00
2023-03-17T20:36:29.441Z,62.01
2023-03-17T20:39:32.401Z,62.10
2023-03-17T20:42:35.336Z,61.61
2023-03-17T20:45:39.145Z,61.99
2023-03-17T20:48:41.775Z,62.03
2023-03-17T20:51:46.333Z,61.82
2023-03-17T20:54:49.770Z,61.93
2023-03-17T20:57:52.681Z,62.20
2023-03-17T21:00:58.343Z,61.93
2023-03-17T21:04:01.147Z,61.85
2023-03-17T21:07:03.699Z,61.87
2023-03-17T21:10:08.771Z,62.08
2023-03-17T21:13:12.035Z,62.09
2023-03-17T21:16:20.214Z,62.24
2023-03-17T21:19:23.483Z,61.85
2023-03-17T21:22:25.984Z,61.81
2023-03-17T21:25:28.404Z,62.27
2023-03-17T21:28:31.418Z,62.20
2023-03-17T21:31:36.878Z,62.07
2023-03-17T21:34:39.928Z,61.92
2023-03-17T21:37:42.795Z,61.84
2023-03-17T21:40:45.694Z,62.09
2023-03-17T21:43:48.267Z,62.16
2023-03-17T21:46:52.467Z,61.77
2023-03-17T21:49:55.218Z,61.96
2023-03-17T21:52:57.918Z,61.97
2023-03-17T21:56:00.512Z,62.09
2023-03-17T21:59:03.206Z,62.03
2023-03-17T22:02:07.349Z,61.73
2023-03-17T22:05:11.275Z,62.03
2023-03-17T22:08:14.396Z,62.16
2023-03-17T22:11:19.414Z,61.94
2023-03-17T22:14:22.033Z,61.75
2023-03-17T22:17:28.061Z,61.67
2023-03-17T22:20:31.684Z,61.95
2023-03-17T22:23:39.584Z,61.75
2023-03-17T22:26:42.499Z,62.11
2023-03-17T22:29:46.283Z,61.93
2023-03-17T22:32:50.984Z,61.69
2023-03-17T22:35:53.897Z,61.98
2023-03-17T22:38:57.370Z,61.91
2023-03-17T22:41:59.971Z,61.87
2023-03-17T22:45:02.488Z,61.62
2023-03-17T22:48:06.675Z,61.55
2023-03-17T22:51:11.407Z,61.76
2023-03-17T22:54:13.921Z,61.96
2023-03-17T22:57:16.615Z,61.79
2023-03-17T23:00:19.654Z,61.98
2023-03-17T23:03:25.427Z,61.88
2023-03-17T23:06:29.688Z,61.76
2023-03-17T23:09:32.534Z,61.62
2023-03-17T23:12:35.192Z,61.87
2023-03-17T23:15:37.940Z,61.75
2023-03-17T23:18:43.677Z,61.83
2023-03-17T23:21:47.900Z,61.94
2023-03-17T23:24:50.561Z,61.80
2023-03-17T23:27:53.048Z,62.06
2023-03-17T23:30:56.115Z,61.95
2023-03-17T23:33:59.909Z,61.84
2023-03-17T23:37:02.835Z,61.66
2023-03-17T23:40:07.194Z,61.64
2023-03-17T23:43:09.858Z,61.39
2023-03-17T23:46:13.740Z,61.27
2023-03-17T23:49:17.688Z,61.46
2023-03-17T23:52:21.082Z,61.58
2023-03-17T23:55:23.502Z,61.57
2023-03-17T23:58:26.924Z,61.39
